Strona główna
METAR-TAF:

METAR-TAF

Lotnisko :

Port lotniczy Erie

Erie, Pensylwania, Stany Zjednoczone

Szerokość geograficzna: 42-04-48N, Długość geograficzna: 080-10-57W, wysokość: 223 m

Aktualna obserwacja pogody

Raport powstał 32 minut temu, godzina 22:51 UTC
Wiatr 8 kt od zachodnio-północny zachód
Temperatura 26°C
Wilgotność 51%
Ciśnienie 1009 hPa
Widzialność: 16.1 km
bezchmurnie

METAR: KERI 122251Z AUTO 29008KT 10SM CLR 26/15 A2980 RMK AO2 SLP085 T02560150 $

czas: 19:23 (23:23 UTC)

Prognoza

Raport powstał 5 godziny i 44 minut temu, godzina 17:39 UTC
Prognoza ważna od 12 godzina 18 UTC do 13 godzina 18 UTC
Wiatr 7 kt od zachodnio-północny zachód
Widzialność: 10 km
Rozproszone chmury na wysokości 8000 ft
Przerywane chmury na wysokości 20000 ft
Od 13 godzina 0900 UTC
Wiatr 6 kt od północny zachód
Widzialność: 10 km
Rozproszone chmury na wysokości 2000 ft

TAF: KERI 121739Z 1218/1318 29007KT P6SM SCT080 BKN200 FM130900 31006KT P6SM SCT020

Obserwacja i prognoza pogody dla ponad 4000 lotnisk (raport METAR i TAF).

Dostępne stacje oznaczono żółtymi i czerwonymi punktami na mapie.

Najedź kursorem aby zobaczyć nazwę stacji.

Kliknij aby zobaczyć obserwacje i prognozy pogody.

Aby zmienić mapę: kliknij na zielony przycisk z czarnym krzyżykiem, aby powiększyć; na zielony przycisk z myślnikiem, aby pomniejszyć; na zielone strzałki, aby przejść do map sąsiednich.


METAR-TAF: